createdAt,value
2017-04-28T00:01:23.331Z,58.20
2017-04-28T00:03:53.140Z,58.90
2017-04-28T00:06:22.950Z,58.30
2017-04-28T00:08:52.751Z,58.50
2017-04-28T00:11:21.858Z,58.10
2017-04-28T00:13:51.669Z,58.10
2017-04-28T00:16:21.485Z,56.90
2017-04-28T00:18:51.311Z,57.00
2017-04-28T00:21:21.215Z,59.00
2017-04-28T00:23:50.995Z,57.90
2017-04-28T00:26:20.037Z,58.40
2017-04-28T00:28:49.101Z,58.90
2017-04-28T00:31:18.210Z,59.10
2017-04-28T00:33:47.994Z,58.60
2017-04-28T00:36:17.118Z,58.50
2017-04-28T00:38:46.935Z,58.40
2017-04-28T00:41:16.736Z,58.00
2017-04-28T00:43:45.854Z,57.50
2017-04-28T00:46:15.653Z,57.80
2017-04-28T00:48:45.565Z,57.70
2017-04-28T00:51:15.378Z,59.10
2017-04-28T00:53:45.189Z,59.00
2017-04-28T00:56:14.982Z,59.40
2017-04-28T00:58:44.087Z,59.20
2017-04-28T01:01:13.898Z,59.70
2017-04-28T01:03:43.682Z,59.60
2017-04-28T01:06:12.716Z,59.50
2017-04-28T01:08:42.509Z,59.70
2017-04-28T01:11:11.618Z,59.70
2017-04-28T01:13:41.537Z,60.50
2017-04-28T01:16:11.311Z,60.50
2017-04-28T01:18:40.440Z,60.90
2017-04-28T01:21:10.249Z,60.70
2017-04-28T01:23:40.076Z,61.20
2017-04-28T01:26:09.153Z,60.50
2017-04-28T01:28:38.965Z,62.30
2017-04-28T01:31:08.089Z,61.90
2017-04-28T01:33:37.171Z,62.70
2017-04-28T01:36:07.078Z,61.70
2017-04-28T01:38:36.859Z,63.90
2017-04-28T01:41:05.986Z,63.00
2017-04-28T01:43:35.084Z,63.30
2017-04-28T01:46:04.897Z,64.30
2017-04-28T01:48:34.713Z,62.90
2017-04-28T01:51:04.629Z,62.60
2017-04-28T01:53:33.678Z,61.70
2017-04-28T01:56:03.467Z,61.80
2017-04-28T01:58:32.578Z,62.70
2017-04-28T02:01:02.386Z,63.50
2017-04-28T02:03:32.221Z,63.70
2017-04-28T02:06:01.266Z,63.20
2017-04-28T02:08:31.097Z,61.70
2017-04-28T02:11:00.997Z,60.30
2017-04-28T02:13:30.777Z,60.70
2017-04-28T02:15:59.813Z,62.10
2017-04-28T02:18:29.710Z,62.20
2017-04-28T02:20:58.823Z,62.90
2017-04-28T02:23:28.621Z,63.70
2017-04-28T02:25:57.679Z,61.30
2017-04-28T02:28:26.711Z,60.30
2017-04-28T02:30:56.540Z,60.70
2017-04-28T02:33:26.455Z,62.30
2017-04-28T02:35:56.229Z,62.20
2017-04-28T02:38:26.140Z,63.20
2017-04-28T02:40:55.921Z,62.50
2017-04-28T02:43:25.735Z,61.40
2017-04-28T02:45:55.539Z,60.30
2017-04-28T02:48:24.582Z,60.10
2017-04-28T02:50:53.618Z,59.70
2017-04-28T02:53:23.435Z,60.80
2017-04-28T02:55:53.251Z,61.90
2017-04-28T02:58:22.347Z,61.10
2017-04-28T03:00:51.522Z,61.00
2017-04-28T03:03:20.628Z,61.80
2017-04-28T03:05:50.562Z,63.30
2017-04-28T03:08:20.371Z,61.70
2017-04-28T03:10:49.545Z,63.40
2017-04-28T03:13:18.593Z,63.70
2017-04-28T03:15:47.649Z,62.70
2017-04-28T03:18:17.477Z,63.30
2017-04-28T03:20:46.524Z,63.60
2017-04-28T03:23:15.570Z,63.00
2017-04-28T03:25:44.614Z,63.70
2017-04-28T03:28:14.533Z,62.70
2017-04-28T03:30:43.587Z,63.30
2017-04-28T03:33:12.622Z,63.50
2017-04-28T03:35:41.777Z,63.80
2017-04-28T03:38:11.557Z,63.40
2017-04-28T03:40:40.691Z,64.30
2017-04-28T03:43:10.485Z,64.30
2017-04-28T03:45:39.527Z,64.60
2017-04-28T03:48:08.585Z,64.40
2017-04-28T03:50:38.387Z,64.20
2017-04-28T03:53:07.433Z,65.80
2017-04-28T03:55:36.528Z,66.00
2017-04-28T03:58:05.591Z,67.50
2017-04-28T04:00:35.404Z,67.30
2017-04-28T04:03:05.203Z,68.10
2017-04-28T04:05:34.241Z,66.50
2017-04-28T04:08:03.359Z,65.90
2017-04-28T04:10:33.194Z,66.20
2017-04-28T04:13:02.234Z,65.70
2017-04-28T04:15:31.278Z,65.80
2017-04-28T04:18:00.357Z,65.60
2017-04-28T04:20:30.145Z,64.40
2017-04-28T04:22:59.295Z,64.60
2017-04-28T04:25:28.361Z,64.50
2017-04-28T04:27:58.152Z,64.30
2017-04-28T04:30:27.369Z,68.60
2017-04-28T04:32:56.567Z,72.80
2017-04-28T04:35:25.637Z,72.70
2017-04-28T04:37:54.682Z,73.50
2017-04-28T04:40:23.858Z,73.10
2017-04-28T04:42:53.642Z,72.10
2017-04-28T04:45:22.702Z,70.20
2017-04-28T04:47:51.880Z,70.70
2017-04-28T04:50:21.686Z,71.00
2017-04-28T04:52:51.506Z,71.10
2017-04-28T04:55:20.537Z,70.50
2017-04-28T04:57:50.321Z,71.40
2017-04-28T05:00:19.446Z,72.10
2017-04-28T05:02:49.258Z,72.20
2017-04-28T05:05:19.083Z,70.70
2017-04-28T05:07:47.450Z,70.70
2017-04-28T05:10:17.229Z,68.20
2017-04-28T05:12:46.329Z,68.30
2017-04-28T05:15:15.380Z,68.90
2017-04-28T05:17:44.452Z,68.60
2017-04-28T05:20:14.266Z,64.50
2017-04-28T05:22:44.057Z,62.50
2017-04-28T05:25:13.170Z,61.50
2017-04-28T05:27:42.212Z,60.70
2017-04-28T05:30:11.289Z,60.30
2017-04-28T05:32:40.363Z,59.90
2017-04-28T05:35:10.180Z,59.90
2017-04-28T05:37:40.083Z,59.40
2017-04-28T05:40:09.870Z,58.80
2017-04-28T05:42:38.978Z,58.70
2017-04-28T05:45:09.095Z,58.50
2017-04-28T05:47:38.892Z,57.90
2017-04-28T05:50:08.009Z,57.90
2017-04-28T05:52:37.817Z,57.50
2017-04-28T05:55:07.638Z,56.70
2017-04-28T05:57:37.462Z,56.40
2017-04-28T06:00:07.264Z,56.40
2017-04-28T06:02:37.148Z,56.20
2017-04-28T06:05:06.281Z,55.60
2017-04-28T06:07:36.067Z,55.00
2017-04-28T06:10:05.183Z,54.50
2017-04-28T06:12:34.215Z,54.30
2017-04-28T06:15:03.421Z,54.00
2017-04-28T06:17:32.518Z,53.80
2017-04-28T06:20:02.303Z,53.60
2017-04-28T06:22:31.527Z,52.90
2017-04-28T06:25:00.569Z,52.80
2017-04-28T06:27:29.629Z,54.70
2017-04-28T06:29:59.447Z,54.70
2017-04-28T06:32:29.255Z,53.40
2017-04-28T06:34:59.068Z,52.50
2017-04-28T06:37:28.878Z,53.30
2017-04-28T06:39:57.941Z,52.20
2017-04-28T06:42:27.726Z,51.50
2017-04-28T06:44:56.811Z,50.80
2017-04-28T06:47:25.942Z,50.40
2017-04-28T06:49:54.986Z,50.70
2017-04-28T06:52:24.039Z,50.20
2017-04-28T06:54:53.084Z,48.70
2017-04-28T06:57:22.229Z,48.10
2017-04-28T06:59:52.163Z,48.00
2017-04-28T07:02:21.944Z,47.80
2017-04-28T07:04:51.109Z,46.70
2017-04-28T07:07:20.925Z,46.60
2017-04-28T07:09:49.997Z,46.30
2017-04-28T07:12:19.817Z,45.60
2017-04-28T07:14:49.750Z,45.70
2017-04-28T07:17:19.559Z,46.30
2017-04-28T07:19:49.462Z,47.00
2017-04-28T07:22:19.251Z,45.90
2017-04-28T07:24:48.297Z,45.70
2017-04-28T07:27:17.461Z,45.40
2017-04-28T07:29:47.279Z,46.30
2017-04-28T07:32:17.088Z,44.70
2017-04-28T07:34:46.151Z,45.00
2017-04-28T07:37:15.953Z,45.50
2017-04-28T07:39:45.864Z,44.50
2017-04-28T07:42:14.901Z,44.10
2017-04-28T07:44:43.941Z,43.80
2017-04-28T07:47:13.057Z,42.60
2017-04-28T07:49:42.878Z,42.10
2017-04-28T07:52:12.773Z,41.50
2017-04-28T07:54:41.874Z,42.50
2017-04-28T07:57:11.717Z,41.50
2017-04-28T07:59:40.770Z,41.50
2017-04-28T08:02:09.994Z,41.20
2017-04-28T08:04:39.787Z,40.40
2017-04-28T08:07:08.890Z,41.00
2017-04-28T08:09:38.714Z,40.60
2017-04-28T08:12:08.535Z,39.20
2017-04-28T08:14:37.634Z,38.40
2017-04-28T08:17:06.683Z,39.60
2017-04-28T08:19:35.721Z,39.10
2017-04-28T08:22:04.803Z,39.50
2017-04-28T08:24:34.706Z,37.40
2017-04-28T08:27:03.756Z,37.40
2017-04-28T08:29:32.906Z,36.40
2017-04-28T08:32:02.713Z,37.50
2017-04-28T08:34:31.802Z,35.60
2017-04-28T08:37:00.909Z,37.00
2017-04-28T08:39:30.683Z,36.10
2017-04-28T08:41:59.826Z,35.20
2017-04-28T08:44:29.625Z,34.40
2017-04-28T08:46:59.422Z,34.10
2017-04-28T08:49:28.537Z,33.40
2017-04-28T08:51:57.640Z,33.10
2017-04-28T08:54:27.422Z,33.90
2017-04-28T08:56:56.476Z,34.30
2017-04-28T08:59:25.534Z,34.30
2017-04-28T09:01:54.646Z,30.60
2017-04-28T09:04:24.562Z,31.90
2017-04-28T09:06:54.358Z,31.70
2017-04-28T09:09:24.184Z,32.40
2017-04-28T09:11:53.999Z,33.00
2017-04-28T09:14:23.791Z,34.10
2017-04-28T09:16:52.850Z,35.40
2017-04-28T09:19:22.003Z,33.60
2017-04-28T09:21:51.798Z,32.40
2017-04-28T09:24:20.841Z,33.70
2017-04-28T09:26:49.877Z,32.90
2017-04-28T09:29:18.929Z,33.00
2017-04-28T09:31:47.981Z,32.70
2017-04-28T09:34:17.009Z,32.50
2017-04-28T09:36:46.091Z,32.10
2017-04-28T09:39:15.865Z,32.60
2017-04-28T09:41:44.898Z,30.80
2017-04-28T09:44:14.811Z,30.20
2017-04-28T09:46:44.606Z,31.10
2017-04-28T09:49:14.518Z,31.40
2017-04-28T09:51:43.551Z,32.50
2017-04-28T09:54:12.582Z,32.90
2017-04-28T09:56:40.878Z,32.90
2017-04-28T09:59:10.585Z,32.50
2017-04-28T10:01:40.407Z,32.40
2017-04-28T10:04:09.524Z,32.10
2017-04-28T10:06:38.578Z,33.00
2017-04-28T10:09:07.623Z,33.60
2017-04-28T10:11:36.690Z,33.40
2017-04-28T10:14:06.471Z,32.90
2017-04-28T10:16:35.594Z,33.60
2017-04-28T10:19:05.402Z,34.20
2017-04-28T10:21:34.480Z,32.60
2017-04-28T10:24:03.550Z,34.30
2017-04-28T10:26:32.611Z,31.70
2017-04-28T10:29:01.656Z,32.30
2017-04-28T10:31:30.761Z,32.90
2017-04-28T10:33:59.827Z,34.30
2017-04-28T10:36:28.888Z,32.90
2017-04-28T10:38:58.793Z,32.80
2017-04-28T10:41:28.583Z,32.40
2017-04-28T10:43:57.625Z,34.10
2017-04-28T10:46:26.695Z,34.40
2017-04-28T10:48:56.509Z,34.60
2017-04-28T10:51:26.315Z,35.10
2017-04-28T10:53:55.415Z,35.00
2017-04-28T10:56:25.205Z,34.30
2017-04-28T10:58:54.329Z,33.50
2017-04-28T11:33:03.917Z,32.20
2017-04-28T11:35:32.959Z,32.10
2017-04-28T11:38:02.014Z,31.40
2017-04-28T11:40:31.065Z,31.30
2017-04-28T11:43:00.851Z,30.00
2017-04-28T11:45:29.974Z,30.40
2017-04-28T11:47:59.783Z,29.90
2017-04-28T11:50:28.821Z,29.30
2017-04-28T11:52:57.978Z,30.70
2017-04-28T11:55:27.481Z,31.30
2017-04-28T11:57:57.269Z,29.50
2017-04-28T12:00:26.491Z,29.40
2017-04-28T12:02:55.593Z,28.70
2017-04-28T12:05:25.401Z,29.40
2017-04-28T12:07:55.239Z,28.90
2017-04-28T12:10:24.281Z,29.80
2017-04-28T12:12:53.413Z,29.40
2017-04-28T12:15:23.210Z,30.90
2017-04-28T12:17:52.240Z,30.20
2017-04-28T12:20:21.305Z,29.30
2017-04-28T12:22:50.418Z,29.50
2017-04-28T12:25:20.199Z,30.10
2017-04-28T12:27:49.313Z,31.80
2017-04-28T12:30:18.418Z,33.00
2017-04-28T12:32:48.225Z,34.10
2017-04-28T12:35:18.033Z,32.80
2017-04-28T12:37:47.146Z,33.30
2017-04-28T12:40:16.937Z,33.80
2017-04-28T12:42:46.035Z,34.90
2017-04-28T12:45:15.143Z,36.60
2017-04-28T12:47:44.923Z,39.40
2017-04-28T12:50:14.006Z,40.90
2017-04-28T12:52:43.060Z,42.60
2017-04-28T12:55:12.542Z,42.00
2017-04-28T12:57:41.641Z,47.70
2017-04-28T13:00:11.454Z,45.90
2017-04-28T13:02:41.271Z,42.10
2017-04-28T13:05:11.082Z,45.70
2017-04-28T13:07:40.909Z,45.30
2017-04-28T13:10:09.950Z,46.10
2017-04-28T13:12:38.994Z,46.30
2017-04-28T13:15:08.997Z,49.60
2017-04-28T13:17:38.102Z,50.00
2017-04-28T13:20:07.911Z,49.10
2017-04-28T13:22:37.699Z,50.20
2017-04-28T13:25:06.822Z,50.70
2017-04-28T13:27:36.733Z,52.90
2017-04-28T13:30:06.522Z,53.30
2017-04-28T13:32:35.561Z,48.60
2017-04-28T13:35:04.630Z,48.00
2017-04-28T13:37:33.758Z,48.60
2017-04-28T13:40:02.797Z,47.10
2017-04-28T13:42:31.891Z,49.40
2017-04-28T13:45:01.024Z,48.80
2017-04-28T13:47:30.833Z,46.90
2017-04-28T13:50:00.639Z,48.40
2017-04-28T13:52:29.746Z,48.80
2017-04-28T13:54:59.537Z,47.80
2017-04-28T13:57:28.622Z,47.40
2017-04-28T13:59:57.741Z,47.10
2017-04-28T14:02:27.531Z,46.70
2017-04-28T14:04:56.649Z,45.90
2017-04-28T14:07:26.488Z,45.20
2017-04-28T14:09:55.533Z,42.60
2017-04-28T14:12:24.633Z,39.60
2017-04-28T14:14:53.749Z,37.40
2017-04-28T14:17:23.542Z,35.70
2017-04-28T14:19:52.597Z,33.50
2017-04-28T14:22:21.663Z,30.00
2017-04-28T14:24:51.472Z,28.70
2017-04-28T14:27:21.259Z,29.20
2017-04-28T14:29:50.328Z,29.20
2017-04-28T14:32:19.481Z,26.80
2017-04-28T14:34:49.291Z,25.60
2017-04-28T14:37:19.107Z,27.00
2017-04-28T14:39:48.913Z,25.30
2017-04-28T14:42:18.722Z,24.30
2017-04-28T14:44:48.534Z,25.70
2017-04-28T14:47:18.312Z,24.00
2017-04-28T14:49:47.363Z,23.50
2017-04-28T14:52:17.257Z,23.40
2017-04-28T14:54:46.349Z,23.70
2017-04-28T14:57:15.456Z,24.00
2017-04-28T14:59:45.366Z,23.30
2017-04-28T15:02:15.195Z,23.10
2017-04-28T15:04:45.111Z,22.60
2017-04-28T15:07:14.877Z,21.80
2017-04-28T15:09:43.999Z,22.60
2017-04-28T15:12:13.049Z,23.50
2017-04-28T15:14:42.193Z,23.50
2017-04-28T15:17:12.025Z,24.90
2017-04-28T15:19:41.949Z,23.00
2017-04-28T15:22:11.029Z,23.40
2017-04-28T15:24:40.949Z,23.80
2017-04-28T15:27:10.741Z,23.40
2017-04-28T15:29:39.787Z,23.10
2017-04-28T15:32:08.939Z,23.50
2017-04-28T15:34:38.751Z,26.30
2017-04-28T15:37:08.551Z,26.30
2017-04-28T15:39:37.593Z,27.60
2017-04-28T15:42:06.659Z,29.20
2017-04-28T15:44:36.476Z,28.70
2017-04-28T15:47:06.389Z,29.20
2017-04-28T15:49:35.425Z,29.50
2017-04-28T15:52:04.471Z,30.00
2017-04-28T15:54:34.284Z,31.00
2017-04-28T15:57:04.193Z,31.50
2017-04-28T15:59:33.295Z,32.20
2017-04-28T16:02:03.109Z,33.00
2017-04-28T16:04:32.904Z,34.70
2017-04-28T16:07:01.961Z,36.90
2017-04-28T16:09:31.114Z,38.50
2017-04-28T16:12:00.936Z,38.40
2017-04-28T16:14:30.821Z,36.60
2017-04-28T16:16:59.947Z,38.20
2017-04-28T16:19:29.846Z,37.40
2017-04-28T16:21:59.679Z,37.40
2017-04-28T16:24:28.742Z,39.60
2017-04-28T16:26:57.789Z,39.60
2017-04-28T16:29:26.858Z,39.30
2017-04-28T16:31:56.645Z,39.60
2017-04-28T16:34:25.685Z,40.00
2017-04-28T16:36:54.750Z,40.70
2017-04-28T16:39:24.569Z,41.40
2017-04-28T16:41:53.633Z,40.30
2017-04-28T16:44:22.753Z,39.90
2017-04-28T16:46:53.485Z,38.60
2017-04-28T16:49:22.599Z,38.60
2017-04-28T16:51:52.397Z,38.50
2017-04-28T16:54:22.196Z,38.90
2017-04-28T16:56:51.245Z,40.10
2017-04-28T16:59:20.500Z,40.80
2017-04-28T17:01:49.550Z,41.30
2017-04-28T17:04:18.616Z,41.40
2017-04-28T17:06:48.547Z,43.20
2017-04-28T17:09:17.606Z,43.50
2017-04-28T17:11:47.418Z,42.20
2017-04-28T17:14:17.328Z,41.90
2017-04-28T17:16:46.386Z,42.80
2017-04-28T17:19:15.434Z,42.80
2017-04-28T17:21:45.236Z,43.10
2017-04-28T17:24:15.049Z,40.90
2017-04-28T17:26:44.871Z,41.20
2017-04-28T17:29:14.778Z,41.40
2017-04-28T17:31:44.565Z,40.10
2017-04-28T17:34:13.698Z,38.80
2017-04-28T17:36:43.505Z,39.50
2017-04-28T17:39:13.415Z,40.90
2017-04-28T17:41:43.197Z,41.60
2017-04-28T17:44:12.262Z,42.10
2017-04-28T17:46:41.311Z,42.60
2017-04-28T17:49:11.508Z,43.10
2017-04-28T17:51:40.578Z,42.80
2017-04-28T17:54:09.723Z,42.50
2017-04-28T17:56:39.523Z,42.50
2017-04-28T17:59:08.647Z,44.80
2017-04-28T18:01:38.461Z,42.80
2017-04-28T18:04:08.367Z,43.00
2017-04-28T18:06:38.159Z,42.60
2017-04-28T18:09:07.252Z,42.80
2017-04-28T18:11:36.369Z,43.00
2017-04-28T18:14:06.249Z,43.10
2017-04-28T18:16:35.343Z,43.40
2017-04-28T18:19:04.480Z,43.80
2017-04-28T18:21:34.303Z,45.10
2017-04-28T18:24:03.492Z,44.30
2017-04-28T18:26:33.274Z,45.50
2017-04-28T18:29:02.313Z,45.90
2017-04-28T18:31:31.380Z,45.90
2017-04-28T18:34:00.481Z,46.10
2017-04-28T18:36:30.303Z,46.20
2017-04-28T18:39:00.219Z,46.30
2017-04-28T18:41:30.041Z,45.90
2017-04-28T18:43:59.828Z,46.60
2017-04-28T18:46:28.930Z,45.80
2017-04-28T18:48:58.728Z,45.50
2017-04-28T18:51:27.774Z,45.90
2017-04-28T18:53:56.994Z,46.90
2017-04-28T18:56:26.046Z,47.50
2017-04-28T18:58:55.863Z,47.70
2017-04-28T19:01:25.761Z,47.40
2017-04-28T19:03:55.574Z,46.70
2017-04-28T19:06:25.401Z,46.90
2017-04-28T19:08:55.215Z,46.90
2017-04-28T19:11:24.295Z,47.70
2017-04-28T19:13:53.350Z,47.90
2017-04-28T19:16:22.493Z,47.70
2017-04-28T19:18:52.286Z,47.20
2017-04-28T19:21:21.355Z,47.90
2017-04-28T19:23:50.504Z,47.50
2017-04-28T19:26:19.566Z,47.30
2017-04-28T19:28:48.685Z,47.90
2017-04-28T19:31:18.478Z,47.90
2017-04-28T19:33:47.611Z,47.90
2017-04-28T19:36:17.418Z,46.90
2017-04-28T19:38:47.231Z,48.30
2017-04-28T19:41:17.038Z,48.00
2017-04-28T19:43:46.857Z,47.40
2017-04-28T19:46:16.771Z,48.00
2017-04-28T19:48:46.574Z,47.60
2017-04-28T19:51:16.366Z,48.20
2017-04-28T19:53:45.478Z,48.70
2017-04-28T19:56:14.609Z,48.90
2017-04-28T19:58:44.418Z,48.50
2017-04-28T20:01:14.237Z,48.50
2017-04-28T20:03:44.039Z,48.40
2017-04-28T20:06:13.087Z,48.50
2017-04-28T20:08:42.265Z,49.00
2017-04-28T20:11:11.308Z,49.00
2017-04-28T20:13:40.354Z,49.30
2017-04-28T20:16:09.522Z,49.20
2017-04-28T20:18:39.313Z,48.60
2017-04-28T20:21:08.357Z,48.70
2017-04-28T20:23:37.431Z,49.10
2017-04-28T20:26:07.242Z,49.70
2017-04-28T20:28:36.273Z,49.90
2017-04-28T20:31:05.374Z,50.00
2017-04-28T20:33:34.422Z,50.20
2017-04-28T20:36:04.246Z,50.10
2017-04-28T20:38:34.149Z,49.90
2017-04-28T20:41:03.977Z,49.80
2017-04-28T20:43:33.034Z,49.60
2017-04-28T20:46:02.185Z,50.10
2017-04-28T20:48:31.263Z,50.00
2017-04-28T20:51:01.074Z,50.30
2017-04-28T20:53:30.984Z,50.30
2017-04-28T20:56:00.788Z,50.30
2017-04-28T20:58:30.615Z,50.30
2017-04-28T21:01:00.406Z,50.60
2017-04-28T21:03:29.519Z,49.60
2017-04-28T21:05:59.298Z,50.70
2017-04-28T21:08:28.381Z,49.90
2017-04-28T21:10:57.438Z,49.90
2017-04-28T21:13:26.609Z,50.20
2017-04-28T21:15:56.518Z,50.00
2017-04-28T21:18:25.597Z,49.90
2017-04-28T21:20:54.762Z,49.70
2017-04-28T21:23:23.943Z,49.80
2017-04-28T21:25:53.004Z,49.90
2017-04-28T21:28:22.064Z,49.40
2017-04-28T21:30:51.214Z,50.00
2017-04-28T21:33:21.021Z,49.80
2017-04-28T21:35:50.828Z,50.10
2017-04-28T21:38:20.612Z,50.20
2017-04-28T21:40:49.730Z,49.20
2017-04-28T21:43:19.519Z,50.30
2017-04-28T21:45:48.598Z,50.70
2017-04-28T21:48:17.644Z,50.20
2017-04-28T21:50:46.731Z,49.60
2017-04-28T21:53:15.782Z,49.70
2017-04-28T21:55:45.619Z,50.60
2017-04-28T21:58:14.681Z,49.50
2017-04-28T22:00:44.506Z,51.70
2017-04-28T22:03:14.411Z,50.20
2017-04-28T22:05:43.522Z,49.90
2017-04-28T22:08:13.329Z,50.10
2017-04-28T22:10:43.128Z,50.80
2017-04-28T22:13:12.935Z,50.00
2017-04-28T22:15:47.770Z,50.00
2017-04-28T22:18:16.814Z,50.40
2017-04-28T22:20:45.968Z,50.30
2017-04-28T22:23:15.775Z,50.10
2017-04-28T22:25:44.873Z,49.60
2017-04-28T22:28:14.693Z,51.10
2017-04-28T22:30:44.490Z,50.50
2017-04-28T22:33:13.561Z,50.40
2017-04-28T22:35:42.695Z,50.40
2017-04-28T22:38:11.813Z,49.60
2017-04-28T22:40:40.892Z,50.50
2017-04-28T22:43:09.967Z,50.50
2017-04-28T22:45:39.784Z,49.90
2017-04-28T22:48:08.846Z,50.00
2017-04-28T22:50:38.655Z,50.50
2017-04-28T22:53:08.444Z,50.40
2017-04-28T22:55:37.566Z,50.00
2017-04-28T22:58:07.355Z,50.60
2017-04-28T23:00:36.436Z,51.10
2017-04-28T23:03:05.476Z,51.20
2017-04-28T23:05:35.281Z,50.90
2017-04-28T23:08:05.079Z,52.10
2017-04-28T23:10:34.143Z,50.80
2017-04-28T23:13:03.195Z,51.40
2017-04-28T23:15:32.993Z,52.60
2017-04-28T23:18:02.780Z,52.10
2017-04-28T23:20:31.829Z,52.60
2017-04-28T23:23:00.877Z,52.40
2017-04-28T23:25:30.002Z,52.70
2017-04-28T23:27:59.809Z,52.10
2017-04-28T23:30:29.597Z,53.30
2017-04-28T23:32:58.730Z,52.20
2017-04-28T23:35:28.537Z,52.40
2017-04-28T23:37:58.444Z,52.80
2017-04-28T23:40:28.253Z,52.80
2017-04-28T23:42:58.065Z,53.50
2017-04-28T23:45:27.110Z,52.90
2017-04-28T23:47:56.259Z,52.80
2017-04-28T23:50:26.034Z,52.80
2017-04-28T23:52:55.182Z,52.40
2017-04-28T23:55:24.986Z,53.20
2017-04-28T23:57:54.789Z,54.30
